createdAt,value
2019-04-20T00:01:01.547Z,8.30
2019-04-20T00:03:36.820Z,8.88
2019-04-20T00:06:01.321Z,12.05
2019-04-20T00:08:33.206Z,10.85
2019-04-20T00:11:07.989Z,8.60
2019-04-20T00:13:42.670Z,10.08
2019-04-20T00:16:02.011Z,11.97
2019-04-20T00:18:34.510Z,9.50
2019-04-20T00:21:05.550Z,12.25
2019-04-20T00:23:43.730Z,8.90
2019-04-20T00:26:32.264Z,10.43
2019-04-20T00:29:07.478Z,11.60
2019-04-20T00:31:30.673Z,9.53
2019-04-20T00:33:59.479Z,11.78
2019-04-20T00:36:20.028Z,9.25
2019-04-20T00:38:53.599Z,9.65
2019-04-20T00:41:20.330Z,9.98
2019-04-20T00:43:49.159Z,11.15
2019-04-20T00:46:26.411Z,9.60
2019-04-20T00:48:55.945Z,10.70
2019-04-20T00:51:35.119Z,11.22
2019-04-20T00:53:51.467Z,9.88
2019-04-20T00:56:18.255Z,13.70
2019-04-20T00:58:58.105Z,11.28
2019-04-20T01:01:36.218Z,12.63
2019-04-20T01:04:07.130Z,11.78
2019-04-20T01:06:31.752Z,10.48
2019-04-20T01:08:59.266Z,10.72
2019-04-20T01:11:33.906Z,13.20
2019-04-20T01:14:03.864Z,8.78
2019-04-20T01:16:36.570Z,11.85
2019-04-20T01:18:57.720Z,17.67
2019-04-20T01:21:28.849Z,11.33
2019-04-20T01:23:59.916Z,9.68
2019-04-20T01:26:27.371Z,24.00
2019-04-20T01:29:09.653Z,32.48
2019-04-20T01:31:35.527Z,12.28
2019-04-20T01:34:05.424Z,10.85
2019-04-20T01:36:47.970Z,13.65
2019-04-20T01:39:09.310Z,10.90
2019-04-20T01:41:26.526Z,9.78
2019-04-20T01:43:54.893Z,22.87
2019-04-20T01:46:25.515Z,12.28
2019-04-20T01:48:53.117Z,11.93
2019-04-20T01:51:26.919Z,12.35
2019-04-20T01:56:45.568Z,11.48
2019-04-20T01:59:23.061Z,14.05
2019-04-20T02:01:59.194Z,10.58
2019-04-20T02:04:32.299Z,11.45
2019-04-20T02:06:59.699Z,12.23
2019-04-20T02:09:30.506Z,13.18
2019-04-20T02:12:04.971Z,9.53
2019-04-20T02:14:35.151Z,14.53
2019-04-20T02:17:08.293Z,14.43
2019-04-20T02:19:43.094Z,12.28
2019-04-20T02:22:09.793Z,13.55
2019-04-20T02:24:27.837Z,16.77
2019-04-20T02:26:56.196Z,11.05
2019-04-20T02:29:46.074Z,11.35
2019-04-20T02:32:22.827Z,15.45
2019-04-20T02:35:01.486Z,12.85
2019-04-20T02:43:06.566Z,9.60
2019-04-20T02:45:17.463Z,12.58
2019-04-20T02:50:09.077Z,12.00
2019-04-20T02:52:38.067Z,12.58
2019-04-20T02:55:10.986Z,11.43
2019-04-20T02:57:50.955Z,10.70
2019-04-20T03:00:08.701Z,11.35
2019-04-20T03:02:20.609Z,10.05
2019-04-20T03:04:43.431Z,14.25
2019-04-20T03:07:15.213Z,12.55
2019-04-20T03:09:50.486Z,18.05
2019-04-20T03:12:31.646Z,14.33
2019-04-20T03:14:47.360Z,11.93
2019-04-20T03:17:29.756Z,14.28
2019-04-20T03:19:47.637Z,16.15
2019-04-20T03:22:35.247Z,13.05
2019-04-20T03:24:54.362Z,17.90
2019-04-20T03:27:25.465Z,13.15
2019-04-20T03:29:56.680Z,15.58
2019-04-20T03:35:05.225Z,12.33
2019-04-20T03:37:34.520Z,13.45
2019-04-20T03:39:55.465Z,13.20
2019-04-20T03:42:09.340Z,14.68
2019-04-20T03:44:39.422Z,14.98
2019-04-20T03:47:11.476Z,13.30
2019-04-20T03:49:59.572Z,15.93
2019-04-20T03:52:37.724Z,11.10
2019-04-20T03:55:06.282Z,15.50
2019-04-20T03:57:57.502Z,15.83
2019-04-20T04:00:34.294Z,13.35
2019-04-20T04:03:21.486Z,12.33
2019-04-20T04:05:45.917Z,13.78
2019-04-20T04:08:06.183Z,13.53
2019-04-20T04:10:40.914Z,16.87
2019-04-20T04:13:05.059Z,23.55
2019-04-20T04:15:36.176Z,14.87
2019-04-20T04:18:13.809Z,13.25
2019-04-20T04:20:44.428Z,11.88
2019-04-20T04:23:24.948Z,16.95
2019-04-20T04:25:57.986Z,17.05
2019-04-20T04:28:22.540Z,14.38
2019-04-20T04:30:54.518Z,12.35
2019-04-20T04:33:50.381Z,11.73
2019-04-20T04:35:51.343Z,13.15
2019-04-20T04:38:32.729Z,13.45
2019-04-20T04:41:01.891Z,11.57
2019-04-20T04:43:25.421Z,12.98
2019-04-20T04:45:37.006Z,14.98
2019-04-20T04:48:07.623Z,12.88
2019-04-20T04:50:44.153Z,15.72
2019-04-20T04:53:13.368Z,12.03
2019-04-20T04:55:46.710Z,13.43
2019-04-20T04:58:06.388Z,12.73
2019-04-20T05:00:35.868Z,11.63
2019-04-20T05:03:22.942Z,16.57
2019-04-20T05:06:03.449Z,13.70
2019-04-20T05:08:22.261Z,16.67
2019-04-20T05:10:43.848Z,11.03
2019-04-20T05:13:13.552Z,17.30
2019-04-20T05:15:52.560Z,13.28
2019-04-20T05:18:43.223Z,18.50
2019-04-20T05:21:05.889Z,12.98
2019-04-20T05:23:28.290Z,15.18
2019-04-20T05:26:13.773Z,10.65
2019-04-20T05:28:37.096Z,15.43
2019-04-20T05:31:02.964Z,16.77
2019-04-20T05:33:49.790Z,10.98
2019-04-20T05:36:18.609Z,18.90
2019-04-20T05:38:55.760Z,11.28
2019-04-20T05:41:18.075Z,10.78
2019-04-20T05:43:46.838Z,18.25
2019-04-20T05:46:22.367Z,10.25
2019-04-20T05:48:53.327Z,14.85
2019-04-20T05:51:27.776Z,10.00
2019-04-20T05:53:50.106Z,12.78
2019-04-20T05:56:26.704Z,11.12
2019-04-20T05:58:50.708Z,13.05
2019-04-20T06:01:25.252Z,8.28
2019-04-20T06:03:50.054Z,10.80
2019-04-20T06:06:22.103Z,11.75
2019-04-20T06:08:59.552Z,13.30
2019-04-20T06:11:23.782Z,14.73
2019-04-20T06:13:48.192Z,10.35
2019-04-20T06:16:33.281Z,12.33
2019-04-20T06:19:06.458Z,10.18
2019-04-20T06:21:52.495Z,10.68
2019-04-20T06:24:20.691Z,11.28
2019-04-20T06:27:14.875Z,9.73
2019-04-20T06:29:32.379Z,9.43
2019-04-20T06:31:52.004Z,17.10
2019-04-20T06:36:57.173Z,13.62
2019-04-20T06:44:32.218Z,10.53
2019-04-20T06:47:04.006Z,9.58
2019-04-20T06:52:10.112Z,11.55
2019-04-20T06:54:38.262Z,10.15
2019-04-20T06:57:05.766Z,10.18
2019-04-20T07:02:18.729Z,15.43
2019-04-20T07:07:10.206Z,12.05
2019-04-20T07:09:52.939Z,11.57
2019-04-20T07:12:03.048Z,12.03
2019-04-20T07:14:31.539Z,8.63
2019-04-20T07:17:24.548Z,11.25
2019-04-20T07:19:40.130Z,14.68
2019-04-20T07:22:25.396Z,9.90
2019-04-20T07:24:54.757Z,10.55
2019-04-20T07:27:19.902Z,10.17
2019-04-20T07:29:54.619Z,13.22
2019-04-20T07:32:11.629Z,12.13
2019-04-20T07:34:51.591Z,9.68
2019-04-20T07:37:51.792Z,12.60
2019-04-20T07:39:53.842Z,11.70
2019-04-20T07:42:28.971Z,12.43
2019-04-20T07:44:55.228Z,10.58
2019-04-20T07:47:32.573Z,10.90
2019-04-20T07:49:49.857Z,13.55
2019-04-20T07:52:01.780Z,12.45
2019-04-20T07:55:12.205Z,13.58
2019-04-20T07:57:19.575Z,16.10
2019-04-20T07:59:53.873Z,12.65
2019-04-20T08:02:37.818Z,12.53
2019-04-20T08:05:08.537Z,19.37
2019-04-20T08:07:35.139Z,11.80
2019-04-20T08:09:59.879Z,13.18
2019-04-20T08:12:58.733Z,13.88
2019-04-20T08:15:29.730Z,12.65
2019-04-20T08:17:56.394Z,16.62
2019-04-20T08:20:22.013Z,11.12
2019-04-20T08:22:55.205Z,15.38
2019-04-20T08:25:13.288Z,14.47
2019-04-20T08:27:48.788Z,16.25
2019-04-20T08:33:28.757Z,17.17
2019-04-20T08:35:58.487Z,16.05
2019-04-20T08:40:53.535Z,14.85
2019-04-20T08:43:37.894Z,33.92
2019-04-20T08:46:01.786Z,16.85
2019-04-20T08:48:29.797Z,15.83
2019-04-20T08:50:57.582Z,17.95
2019-04-20T08:53:30.852Z,17.87
2019-04-20T08:55:48.912Z,14.35
2019-04-20T08:58:07.018Z,23.67
2019-04-20T09:00:44.511Z,15.43
2019-04-20T09:03:12.954Z,25.27
2019-04-20T09:05:48.901Z,21.27
2019-04-20T09:08:15.933Z,16.52
2019-04-20T09:10:54.062Z,20.43
2019-04-20T09:13:18.777Z,16.90
2019-04-20T09:15:38.519Z,19.87
2019-04-20T09:18:28.301Z,20.75
2019-04-20T09:20:58.387Z,23.05
2019-04-20T09:23:36.809Z,39.92
2019-04-20T09:26:08.817Z,20.40
2019-04-20T09:28:32.069Z,29.87
2019-04-20T09:31:11.884Z,32.33
2019-04-20T09:33:43.152Z,18.80
2019-04-20T09:36:14.317Z,18.75
2019-04-20T09:38:47.899Z,18.57
2019-04-20T09:41:30.384Z,20.50
2019-04-20T09:43:43.384Z,20.25
2019-04-20T09:46:11.913Z,17.55
2019-04-20T09:48:46.941Z,15.58
2019-04-20T09:51:33.360Z,25.82
2019-04-20T09:53:50.587Z,21.75
2019-04-20T09:56:27.482Z,16.45
2019-04-20T09:59:01.294Z,17.95
2019-04-20T10:01:25.234Z,17.90
2019-04-20T10:03:40.868Z,15.80
2019-04-20T10:06:09.749Z,15.55
2019-04-20T10:08:43.529Z,13.83
2019-04-20T10:11:09.660Z,16.27
2019-04-20T10:13:38.401Z,17.90
2019-04-20T10:16:07.939Z,14.58
2019-04-20T10:18:41.419Z,14.80
2019-04-20T10:21:07.554Z,12.10
2019-04-20T10:23:36.628Z,16.97
2019-04-20T10:26:04.962Z,16.50
2019-04-20T10:28:33.850Z,27.87
2019-04-20T10:31:02.396Z,19.10
2019-04-20T10:33:31.372Z,16.60
2019-04-20T10:35:59.696Z,14.45
2019-04-20T10:41:16.225Z,15.75
2019-04-20T10:43:40.746Z,15.53
2019-04-20T10:46:09.200Z,16.90
2019-04-20T10:48:41.726Z,17.07
2019-04-20T10:51:08.412Z,15.30
2019-04-20T10:53:37.927Z,13.93
2019-04-20T10:56:07.506Z,15.05
2019-04-20T10:58:35.908Z,12.88
2019-04-20T11:01:04.216Z,12.82
2019-04-20T11:03:32.473Z,12.37
2019-04-20T11:06:00.744Z,16.65
2019-04-20T11:08:29.063Z,13.53
2019-04-20T11:11:08.385Z,10.48
2019-04-20T11:13:27.651Z,11.83
2019-04-20T11:15:56.673Z,17.45
2019-04-20T11:18:25.196Z,11.33
2019-04-20T11:20:53.474Z,14.03
2019-04-20T11:23:22.458Z,12.63
2019-04-20T11:25:50.948Z,14.85
2019-04-20T11:28:19.867Z,11.12
2019-04-20T11:30:48.326Z,10.43
2019-04-20T11:33:16.580Z,16.60
2019-04-20T11:35:46.465Z,15.40
2019-04-20T11:38:17.143Z,10.93
2019-04-20T11:40:44.981Z,12.73
2019-04-20T11:43:13.656Z,13.03
2019-04-20T11:45:42.700Z,14.23
2019-04-20T11:48:13.680Z,13.05
2019-04-20T11:50:43.309Z,15.20
2019-04-20T11:53:13.289Z,11.38
2019-04-20T11:55:42.354Z,14.78
2019-04-20T11:58:12.161Z,16.75
2019-04-20T12:00:56.256Z,19.02
2019-04-20T12:03:27.965Z,11.97
2019-04-20T12:05:53.760Z,15.75
2019-04-20T12:08:20.774Z,17.62
2019-04-20T12:10:54.735Z,12.98
2019-04-20T12:13:22.696Z,12.93
2019-04-20T12:15:51.847Z,12.75
2019-04-20T12:18:20.869Z,18.23
2019-04-20T12:20:50.365Z,16.50
2019-04-20T12:23:20.120Z,14.87
2019-04-20T12:25:48.593Z,14.85
2019-04-20T12:28:17.941Z,14.87
2019-04-20T12:30:46.466Z,11.35
2019-04-20T12:33:16.106Z,11.83
2019-04-20T12:35:44.520Z,15.00
2019-04-20T12:38:12.884Z,14.00
2019-04-20T12:40:42.018Z,14.65
2019-04-20T12:43:11.083Z,22.90
2019-04-20T12:45:40.002Z,44.00
2019-04-20T12:48:08.516Z,16.52
2019-04-20T12:50:37.431Z,19.37
2019-04-20T12:53:06.493Z,13.25
2019-04-20T12:55:34.940Z,14.35
2019-04-20T12:58:03.184Z,15.03
2019-04-20T13:00:46.029Z,14.70
2019-04-20T13:03:14.522Z,16.55
2019-04-20T13:05:43.595Z,20.08
2019-04-20T13:08:13.824Z,16.85
2019-04-20T13:10:44.484Z,17.57
2019-04-20T13:13:30.465Z,17.80
2019-04-20T13:16:14.253Z,16.77
2019-04-20T13:18:45.438Z,13.60
2019-04-20T13:21:13.780Z,15.68
2019-04-20T13:23:42.755Z,13.88
2019-04-20T13:26:12.732Z,12.43
2019-04-20T13:28:41.338Z,12.73
2019-04-20T13:31:09.660Z,14.73
2019-04-20T13:33:39.075Z,13.22
2019-04-20T13:36:08.118Z,15.50
2019-04-20T13:38:36.579Z,19.17
2019-04-20T13:41:06.225Z,17.37
2019-04-20T13:43:35.506Z,13.38
2019-04-20T13:46:04.949Z,12.53
2019-04-20T13:48:33.492Z,14.03
2019-04-20T13:51:02.354Z,11.57
2019-04-20T13:53:30.872Z,13.45
2019-04-20T13:55:59.277Z,13.53
2019-04-20T13:58:32.209Z,27.80
2019-04-20T14:01:06.037Z,15.93
2019-04-20T14:03:34.814Z,14.20
2019-04-20T14:06:03.080Z,16.50
2019-04-20T14:08:31.534Z,11.43
2019-04-20T14:10:59.841Z,12.30
2019-04-20T14:13:35.223Z,12.07
2019-04-20T14:15:58.898Z,12.10
2019-04-20T14:18:27.295Z,15.98
2019-04-20T14:20:56.271Z,13.85
2019-04-20T14:23:27.060Z,14.13
2019-04-20T14:25:56.710Z,14.25
2019-04-20T14:28:24.980Z,11.40
2019-04-20T14:30:54.156Z,9.60
2019-04-20T14:33:24.232Z,14.45
2019-04-20T14:35:52.811Z,9.05
2019-04-20T14:38:22.250Z,10.53
2019-04-20T14:40:50.664Z,10.35
2019-04-20T14:43:19.447Z,23.45
2019-04-20T14:45:47.724Z,13.48
2019-04-20T14:48:16.403Z,13.98
2019-04-20T14:50:45.654Z,14.05
2019-04-20T14:53:14.046Z,14.33
2019-04-20T14:55:43.920Z,12.03
2019-04-20T14:58:13.812Z,10.40
2019-04-20T15:01:02.537Z,10.53
2019-04-20T15:03:38.310Z,12.78
2019-04-20T15:06:05.709Z,11.28
2019-04-20T15:08:34.585Z,11.68
2019-04-20T15:11:03.194Z,10.23
2019-04-20T15:13:32.866Z,11.20
2019-04-20T15:16:02.423Z,11.33
2019-04-20T15:18:39.658Z,18.92
2019-04-20T15:21:13.460Z,11.63
2019-04-20T15:23:41.940Z,12.80
2019-04-20T15:26:10.715Z,12.80
2019-04-20T15:28:39.232Z,15.30
2019-04-20T15:31:08.014Z,14.35
2019-04-20T15:33:37.066Z,18.85
2019-04-20T15:36:06.260Z,16.05
2019-04-20T15:38:35.438Z,12.15
2019-04-20T15:41:05.265Z,19.35
2019-04-20T15:43:35.207Z,12.25
2019-04-20T15:46:03.807Z,12.53
2019-04-20T15:48:32.234Z,10.53
2019-04-20T15:51:01.668Z,12.18
2019-04-20T15:53:31.406Z,11.38
2019-04-20T15:56:03.252Z,14.20
2019-04-20T15:58:30.267Z,14.00
2019-04-20T16:01:00.526Z,11.05
2019-04-20T16:03:47.603Z,11.28
2019-04-20T16:06:17.048Z,14.00
2019-04-20T16:08:48.208Z,12.45
2019-04-20T16:11:17.285Z,11.55
2019-04-20T16:13:49.901Z,11.00
2019-04-20T16:16:16.290Z,14.68
2019-04-20T16:18:45.245Z,14.13
2019-04-20T16:21:20.882Z,17.98
2019-04-20T16:23:59.265Z,14.60
2019-04-20T16:26:31.900Z,14.83
2019-04-20T16:29:01.709Z,10.82
2019-04-20T16:31:30.865Z,13.88
2019-04-20T16:33:59.253Z,10.40
2019-04-20T16:36:28.477Z,16.95
2019-04-20T16:38:57.409Z,13.78
2019-04-20T16:41:26.420Z,16.67
2019-04-20T16:43:55.404Z,19.05
2019-04-20T16:46:25.695Z,21.93
2019-04-20T16:48:54.976Z,16.50
2019-04-20T16:51:24.972Z,12.63
2019-04-20T16:53:54.001Z,15.65
2019-04-20T16:56:22.548Z,13.65
2019-04-20T16:58:54.639Z,18.17
2019-04-20T17:01:21.559Z,17.23
2019-04-20T17:04:01.749Z,13.10
2019-04-20T17:06:24.276Z,15.32
2019-04-20T17:08:52.698Z,10.48
2019-04-20T17:11:21.683Z,14.78
2019-04-20T17:13:53.342Z,16.50
2019-04-20T17:16:20.050Z,14.30
2019-04-20T17:18:49.913Z,14.53
2019-04-20T17:21:22.930Z,15.45
2019-04-20T17:23:49.147Z,16.75
2019-04-20T17:26:19.161Z,13.93
2019-04-20T17:28:57.880Z,15.53
2019-04-20T17:31:39.951Z,15.50
2019-04-20T17:34:28.346Z,20.02
2019-04-20T17:36:40.392Z,18.32
2019-04-20T17:39:13.460Z,16.30
2019-04-20T17:41:54.605Z,15.88
2019-04-20T17:44:26.528Z,24.40
2019-04-20T17:46:49.182Z,21.20
2019-04-20T17:49:19.418Z,27.58
2019-04-20T17:52:05.160Z,33.92
2019-04-20T17:54:14.225Z,33.73
2019-04-20T17:59:12.471Z,45.33
2019-04-20T18:02:07.885Z,35.48
2019-04-20T18:04:57.384Z,34.45
2019-04-20T18:07:10.642Z,27.60
2019-04-20T18:09:49.196Z,27.98
2019-04-20T18:12:01.521Z,21.12
2019-04-20T18:14:43.221Z,32.55
2019-04-20T18:17:13.822Z,26.82
2019-04-20T18:19:48.732Z,19.27
2019-04-20T18:22:17.451Z,20.02
2019-04-20T18:25:25.741Z,17.07
2019-04-20T18:27:53.646Z,20.80
2019-04-20T18:30:23.695Z,15.72
2019-04-20T18:32:38.901Z,19.23
2019-04-20T18:35:10.323Z,22.30
2019-04-20T18:37:39.726Z,16.48
2019-04-20T18:40:11.436Z,21.25
2019-04-20T18:42:43.438Z,22.15
2019-04-20T18:45:28.359Z,15.30
2019-04-20T18:47:56.335Z,18.37
2019-04-20T18:50:17.284Z,16.42
2019-04-20T18:52:40.053Z,19.48
2019-04-20T18:55:17.339Z,12.45
2019-04-20T18:57:39.638Z,18.37
2019-04-20T19:00:18.018Z,11.93
2019-04-20T19:02:42.884Z,11.68
2019-04-20T19:05:08.811Z,18.65
2019-04-20T19:07:42.441Z,14.68
2019-04-20T19:10:14.541Z,17.62
2019-04-20T19:12:47.736Z,15.13
2019-04-20T19:15:37.438Z,13.88
2019-04-20T19:18:04.227Z,16.52
2019-04-20T19:20:27.564Z,19.30
2019-04-20T19:22:55.778Z,12.85
2019-04-20T19:25:30.526Z,14.35
2019-04-20T19:27:56.590Z,14.73
2019-04-20T19:30:34.389Z,17.23
2019-04-20T19:33:08.957Z,15.72
2019-04-20T19:35:38.110Z,15.45
2019-04-20T19:38:06.647Z,16.45
2019-04-20T19:40:39.494Z,19.20
2019-04-20T19:43:08.535Z,17.85
2019-04-20T19:45:46.598Z,14.70
2019-04-20T19:48:13.468Z,11.73
2019-04-20T19:50:53.489Z,19.27
2019-04-20T19:53:22.298Z,15.58
2019-04-20T19:55:43.983Z,18.20
2019-04-20T19:58:11.493Z,18.12
2019-04-20T20:00:51.704Z,19.05
2019-04-20T20:03:19.765Z,16.45
2019-04-20T20:05:50.876Z,18.45
2019-04-20T20:08:23.276Z,18.40
2019-04-20T20:10:48.660Z,13.83
2019-04-20T20:13:20.271Z,13.48
2019-04-20T20:15:47.168Z,16.62
2019-04-20T20:18:33.211Z,23.27
2019-04-20T20:21:01.082Z,20.23
2019-04-20T20:23:16.210Z,15.55
2019-04-20T20:25:47.633Z,17.65
2019-04-20T20:28:29.892Z,16.57
2019-04-20T20:30:56.859Z,22.67
2019-04-20T20:33:36.521Z,17.85
2019-04-20T20:35:55.347Z,21.00
2019-04-20T20:38:23.102Z,16.62
2019-04-20T20:40:54.603Z,16.25
2019-04-20T20:43:23.088Z,17.70
2019-04-20T20:46:01.113Z,18.50
2019-04-20T20:48:29.663Z,16.75
2019-04-20T20:51:03.809Z,15.78
2019-04-20T20:53:20.548Z,21.35
2019-04-20T20:55:48.538Z,16.65
2019-04-20T20:58:19.099Z,13.68
2019-04-20T21:00:55.856Z,20.05
2019-04-20T21:03:22.212Z,18.42
2019-04-20T21:05:45.392Z,16.27
2019-04-20T21:08:13.694Z,23.30
2019-04-20T21:10:42.944Z,17.50
2019-04-20T21:13:13.758Z,18.45
2019-04-20T21:15:45.407Z,20.57
2019-04-20T21:18:33.650Z,20.35
2019-04-20T21:21:00.128Z,17.87
2019-04-20T21:23:28.332Z,20.10
2019-04-20T21:26:01.241Z,20.23
2019-04-20T21:28:30.739Z,18.60
2019-04-20T21:31:08.418Z,20.45
2019-04-20T21:33:32.744Z,18.62
2019-04-20T21:36:00.777Z,19.50
2019-04-20T21:38:34.357Z,24.85
2019-04-20T21:41:05.105Z,19.70
2019-04-20T21:43:33.847Z,19.80
2019-04-20T21:46:03.198Z,18.25
2019-04-20T21:48:45.175Z,22.80
2019-04-20T21:51:16.621Z,22.27
2019-04-20T21:53:33.277Z,25.82
2019-04-20T21:55:59.767Z,24.25
2019-04-20T21:58:35.250Z,19.02
2019-04-20T22:01:09.558Z,20.48
2019-04-20T22:03:28.240Z,20.43
2019-04-20T22:06:02.344Z,49.23
2019-04-20T22:08:32.704Z,26.70
2019-04-20T22:11:01.836Z,21.33
2019-04-20T22:13:36.370Z,18.23
2019-04-20T22:16:05.258Z,22.07
2019-04-20T22:18:30.695Z,20.30
2019-04-20T22:21:11.217Z,18.35
2019-04-20T22:23:47.553Z,20.62
2019-04-20T22:26:16.343Z,21.40
2019-04-20T22:28:30.032Z,21.10
2019-04-20T22:30:58.361Z,21.37
2019-04-20T22:33:36.230Z,21.97
2019-04-20T22:36:04.117Z,24.20
2019-04-20T22:38:33.062Z,23.52
2019-04-20T22:41:09.128Z,21.05
2019-04-20T22:43:35.182Z,18.73
2019-04-20T22:46:01.389Z,21.90
2019-04-20T22:48:29.640Z,21.55
2019-04-20T22:51:14.248Z,23.70
2019-04-20T22:53:42.773Z,23.83
2019-04-20T22:56:23.033Z,22.00
2019-04-20T22:58:40.662Z,23.60
2019-04-20T23:01:03.946Z,24.00
2019-04-20T23:03:28.166Z,24.80
2019-04-20T23:05:56.582Z,23.65
2019-04-20T23:08:24.819Z,24.72
2019-04-20T23:10:53.548Z,24.50
2019-04-20T23:13:31.508Z,25.97
2019-04-20T23:15:55.157Z,24.32
2019-04-20T23:18:22.422Z,21.77
2019-04-20T23:20:56.595Z,25.88
2019-04-20T23:23:23.966Z,30.30
2019-04-20T23:25:51.319Z,24.35
2019-04-20T23:28:22.221Z,24.43
2019-04-20T23:30:52.717Z,23.70
2019-04-20T23:33:20.172Z,30.30
2019-04-20T23:35:54.276Z,27.05
2019-04-20T23:38:21.453Z,26.33
2019-04-20T23:40:49.945Z,26.37
2019-04-20T23:43:25.410Z,28.73
2019-04-20T23:46:01.157Z,26.45
2019-04-20T23:48:35.419Z,26.35
2019-04-20T23:51:24.893Z,22.20
2019-04-20T23:53:43.846Z,28.12
2019-04-20T23:56:01.794Z,37.78
2019-04-20T23:58:40.128Z,26.00
